sensor_id;sensor_type;location;lat;lon;timestamp;P1;durP1;ratioP1;P2;durP2;ratioP2
18455;SDS011;9357;49.900;8.208;2023-07-13T00:01:29;3.43;;;1.80;;
18455;SDS011;9357;49.900;8.208;2023-07-13T00:03:02;3.47;;;1.80;;
18455;SDS011;9357;49.900;8.208;2023-07-13T00:04:35;2.37;;;1.70;;
18455;SDS011;9357;49.900;8.208;2023-07-13T00:06:08;2.17;;;1.80;;
18455;SDS011;9357;49.900;8.208;2023-07-13T00:07:40;5.70;;;2.00;;
18455;SDS011;9357;49.900;8.208;2023-07-13T00:09:13;2.30;;;1.90;;
18455;SDS011;9357;49.900;8.208;2023-07-13T00:10:47;3.23;;;1.60;;
18455;SDS011;9357;49.900;8.208;2023-07-13T00:12:24;2.70;;;1.80;;
18455;SDS011;9357;49.900;8.208;2023-07-13T00:13:57;4.27;;;2.10;;
18455;SDS011;9357;49.900;8.208;2023-07-13T00:15:30;4.07;;;1.90;;
18455;SDS011;9357;49.900;8.208;2023-07-13T00:17:03;1.93;;;1.70;;
18455;SDS011;9357;49.900;8.208;2023-07-13T00:18:36;1.80;;;1.67;;
18455;SDS011;9357;49.900;8.208;2023-07-13T00:20:10;3.27;;;2.50;;
18455;SDS011;9357;49.900;8.208;2023-07-13T00:21:43;4.67;;;3.37;;
18455;SDS011;9357;49.900;8.208;2023-07-13T00:23:15;3.97;;;2.50;;
18455;SDS011;9357;49.900;8.208;2023-07-13T00:24:48;4.07;;;2.70;;
18455;SDS011;9357;49.900;8.208;2023-07-13T00:26:20;8.73;;;5.10;;
18455;SDS011;9357;49.900;8.208;2023-07-13T00:27:53;3.83;;;2.70;;
18455;SDS011;9357;49.900;8.208;2023-07-13T00:29:25;2.93;;;2.50;;
18455;SDS011;9357;49.900;8.208;2023-07-13T00:30:58;3.97;;;2.07;;
18455;SDS011;9357;49.900;8.208;2023-07-13T00:32:30;3.40;;;2.20;;
18455;SDS011;9357;49.900;8.208;2023-07-13T00:34:04;3.23;;;2.17;;
18455;SDS011;9357;49.900;8.208;2023-07-13T00:35:37;2.83;;;2.00;;
18455;SDS011;9357;49.900;8.208;2023-07-13T00:37:10;2.60;;;1.93;;
18455;SDS011;9357;49.900;8.208;2023-07-13T00:38:42;2.80;;;1.70;;
18455;SDS011;9357;49.900;8.208;2023-07-13T00:40:15;2.07;;;1.80;;
18455;SDS011;9357;49.900;8.208;2023-07-13T00:41:47;2.87;;;1.70;;
18455;SDS011;9357;49.900;8.208;2023-07-13T00:43:20;1.90;;;1.80;;
18455;SDS011;9357;49.900;8.208;2023-07-13T00:45:04;3.33;;;1.80;;
18455;SDS011;9357;49.900;8.208;2023-07-13T00:46:39;2.00;;;1.80;;
18455;SDS011;9357;49.900;8.208;2023-07-13T00:48:11;2.17;;;1.80;;
18455;SDS011;9357;49.900;8.208;2023-07-13T00:49:47;4.67;;;2.00;;
18455;SDS011;9357;49.900;8.208;2023-07-13T00:51:23;2.60;;;1.87;;
18455;SDS011;9357;49.900;8.208;2023-07-13T00:52:57;3.00;;;1.80;;
18455;SDS011;9357;49.900;8.208;2023-07-13T00:54:32;2.43;;;1.80;;
18455;SDS011;9357;49.900;8.208;2023-07-13T00:56:06;3.53;;;2.00;;
18455;SDS011;9357;49.900;8.208;2023-07-13T00:57:38;1.73;;;1.63;;
18455;SDS011;9357;49.900;8.208;2023-07-13T00:59:12;2.20;;;1.80;;
18455;SDS011;9357;49.900;8.208;2023-07-13T01:00:45;3.07;;;2.00;;
18455;SDS011;9357;49.900;8.208;2023-07-13T01:02:21;2.33;;;1.90;;
18455;SDS011;9357;49.900;8.208;2023-07-13T01:03:55;1.80;;;1.70;;
18455;SDS011;9357;49.900;8.208;2023-07-13T01:05:28;2.23;;;1.80;;
18455;SDS011;9357;49.900;8.208;2023-07-13T01:07:02;2.13;;;1.77;;
18455;SDS011;9357;49.900;8.208;2023-07-13T01:08:35;2.20;;;2.00;;
18455;SDS011;9357;49.900;8.208;2023-07-13T01:10:07;2.20;;;2.00;;
18455;SDS011;9357;49.900;8.208;2023-07-13T01:11:40;3.83;;;2.00;;
18455;SDS011;9357;49.900;8.208;2023-07-13T01:13:12;4.60;;;2.37;;
18455;SDS011;9357;49.900;8.208;2023-07-13T01:14:45;4.37;;;2.20;;
18455;SDS011;9357;49.900;8.208;2023-07-13T01:16:22;3.07;;;2.10;;
18455;SDS011;9357;49.900;8.208;2023-07-13T01:17:57;3.03;;;1.97;;
18455;SDS011;9357;49.900;8.208;2023-07-13T01:19:32;2.60;;;2.10;;
18455;SDS011;9357;49.900;8.208;2023-07-13T01:21:09;5.07;;;3.03;;
18455;SDS011;9357;49.900;8.208;2023-07-13T01:22:41;2.80;;;2.50;;
18455;SDS011;9357;49.900;8.208;2023-07-13T01:24:14;3.57;;;2.37;;
18455;SDS011;9357;49.900;8.208;2023-07-13T01:25:46;2.60;;;2.10;;
18455;SDS011;9357;49.900;8.208;2023-07-13T01:27:20;3.17;;;2.43;;
18455;SDS011;9357;49.900;8.208;2023-07-13T01:28:56;3.13;;;2.13;;
18455;SDS011;9357;49.900;8.208;2023-07-13T01:30:28;4.33;;;2.70;;
18455;SDS011;9357;49.900;8.208;2023-07-13T01:32:00;4.97;;;3.53;;
18455;SDS011;9357;49.900;8.208;2023-07-13T01:33:32;5.37;;;3.47;;
18455;SDS011;9357;49.900;8.208;2023-07-13T01:35:05;4.50;;;3.90;;
18455;SDS011;9357;49.900;8.208;2023-07-13T01:36:39;3.90;;;3.00;;
18455;SDS011;9357;49.900;8.208;2023-07-13T01:38:13;4.07;;;2.50;;
18455;SDS011;9357;49.900;8.208;2023-07-13T01:39:46;5.57;;;3.10;;
18455;SDS011;9357;49.900;8.208;2023-07-13T01:41:19;2.83;;;2.63;;
18455;SDS011;9357;49.900;8.208;2023-07-13T01:42:52;2.67;;;2.37;;
18455;SDS011;9357;49.900;8.208;2023-07-13T01:44:24;4.20;;;2.17;;
18455;SDS011;9357;49.900;8.208;2023-07-13T01:45:57;2.37;;;1.80;;
18455;SDS011;9357;49.900;8.208;2023-07-13T01:47:49;2.37;;;1.93;;
18455;SDS011;9357;49.900;8.208;2023-07-13T01:49:21;2.23;;;1.93;;
18455;SDS011;9357;49.900;8.208;2023-07-13T01:50:54;3.40;;;2.00;;
18455;SDS011;9357;49.900;8.208;2023-07-13T01:52:27;2.20;;;1.90;;
18455;SDS011;9357;49.900;8.208;2023-07-13T01:54:00;4.83;;;2.17;;
18455;SDS011;9357;49.900;8.208;2023-07-13T01:55:31;2.37;;;1.97;;
18455;SDS011;9357;49.900;8.208;2023-07-13T01:57:04;3.03;;;1.97;;
18455;SDS011;9357;49.900;8.208;2023-07-13T01:58:36;3.23;;;2.03;;
18455;SDS011;9357;49.900;8.208;2023-07-13T02:00:10;4.20;;;2.13;;
18455;SDS011;9357;49.900;8.208;2023-07-13T02:01:42;3.70;;;2.17;;
18455;SDS011;9357;49.900;8.208;2023-07-13T02:03:15;3.47;;;2.13;;
18455;SDS011;9357;49.900;8.208;2023-07-13T02:04:49;3.43;;;2.20;;
18455;SDS011;9357;49.900;8.208;2023-07-13T02:06:22;2.30;;;2.10;;
18455;SDS011;9357;49.900;8.208;2023-07-13T02:07:55;4.03;;;2.50;;
18455;SDS011;9357;49.900;8.208;2023-07-13T02:09:29;2.17;;;1.97;;
18455;SDS011;9357;49.900;8.208;2023-07-13T02:11:02;4.37;;;2.27;;
18455;SDS011;9357;49.900;8.208;2023-07-13T02:12:36;3.60;;;2.00;;
18455;SDS011;9357;49.900;8.208;2023-07-13T02:14:08;2.63;;;2.17;;
18455;SDS011;9357;49.900;8.208;2023-07-13T02:15:41;3.40;;;2.10;;
18455;SDS011;9357;49.900;8.208;2023-07-13T02:17:13;2.40;;;2.20;;
18455;SDS011;9357;49.900;8.208;2023-07-13T02:18:46;2.40;;;2.20;;
18455;SDS011;9357;49.900;8.208;2023-07-13T02:20:18;2.53;;;2.10;;
18455;SDS011;9357;49.900;8.208;2023-07-13T02:21:50;2.83;;;2.00;;
18455;SDS011;9357;49.900;8.208;2023-07-13T02:23:24;2.70;;;1.87;;
18455;SDS011;9357;49.900;8.208;2023-07-13T02:24:56;3.00;;;2.10;;
18455;SDS011;9357;49.900;8.208;2023-07-13T02:26:28;2.50;;;2.30;;
18455;SDS011;9357;49.900;8.208;2023-07-13T02:28:01;4.03;;;2.20;;
18455;SDS011;9357;49.900;8.208;2023-07-13T02:29:33;3.03;;;2.13;;
18455;SDS011;9357;49.900;8.208;2023-07-13T02:31:06;2.83;;;2.17;;
18455;SDS011;9357;49.900;8.208;2023-07-13T02:32:38;2.47;;;2.00;;
18455;SDS011;9357;49.900;8.208;2023-07-13T02:34:11;2.13;;;1.80;;
18455;SDS011;9357;49.900;8.208;2023-07-13T02:35:43;3.10;;;1.93;;
18455;SDS011;9357;49.900;8.208;2023-07-13T02:37:16;2.30;;;2.10;;
18455;SDS011;9357;49.900;8.208;2023-07-13T02:38:50;4.60;;;2.50;;
18455;SDS011;9357;49.900;8.208;2023-07-13T02:40:23;3.37;;;2.40;;
18455;SDS011;9357;49.900;8.208;2023-07-13T02:41:54;2.90;;;2.40;;
18455;SDS011;9357;49.900;8.208;2023-07-13T02:43:27;2.57;;;2.37;;
18455;SDS011;9357;49.900;8.208;2023-07-13T02:44:59;3.17;;;2.37;;
18455;SDS011;9357;49.900;8.208;2023-07-13T02:46:32;2.73;;;2.23;;
18455;SDS011;9357;49.900;8.208;2023-07-13T02:48:05;4.63;;;2.40;;
18455;SDS011;9357;49.900;8.208;2023-07-13T02:49:38;4.63;;;2.20;;
18455;SDS011;9357;49.900;8.208;2023-07-13T02:51:10;2.13;;;2.03;;
18455;SDS011;9357;49.900;8.208;2023-07-13T02:52:43;3.10;;;2.40;;
18455;SDS011;9357;49.900;8.208;2023-07-13T02:54:16;3.93;;;2.40;;
18455;SDS011;9357;49.900;8.208;2023-07-13T02:55:49;3.20;;;2.30;;
18455;SDS011;9357;49.900;8.208;2023-07-13T02:57:21;4.13;;;2.23;;
18455;SDS011;9357;49.900;8.208;2023-07-13T02:58:54;3.57;;;2.20;;
18455;SDS011;9357;49.900;8.208;2023-07-13T03:00:26;3.23;;;2.43;;
18455;SDS011;9357;49.900;8.208;2023-07-13T03:02:00;4.80;;;2.67;;
18455;SDS011;9357;49.900;8.208;2023-07-13T03:03:32;2.83;;;2.30;;
18455;SDS011;9357;49.900;8.208;2023-07-13T03:05:05;2.67;;;2.20;;
18455;SDS011;9357;49.900;8.208;2023-07-13T03:06:38;2.50;;;2.30;;
18455;SDS011;9357;49.900;8.208;2023-07-13T03:08:11;3.90;;;2.73;;
18455;SDS011;9357;49.900;8.208;2023-07-13T03:09:45;3.87;;;2.33;;
18455;SDS011;9357;49.900;8.208;2023-07-13T03:11:19;3.93;;;2.60;;
18455;SDS011;9357;49.900;8.208;2023-07-13T03:12:52;4.63;;;2.50;;
18455;SDS011;9357;49.900;8.208;2023-07-13T03:14:24;3.50;;;2.47;;
18455;SDS011;9357;49.900;8.208;2023-07-13T03:15:57;3.97;;;2.37;;
18455;SDS011;9357;49.900;8.208;2023-07-13T03:17:29;2.47;;;2.27;;
18455;SDS011;9357;49.900;8.208;2023-07-13T03:19:02;3.40;;;2.50;;
18455;SDS011;9357;49.900;8.208;2023-07-13T03:20:34;7.20;;;2.77;;
18455;SDS011;9357;49.900;8.208;2023-07-13T03:22:07;6.00;;;2.47;;
18455;SDS011;9357;49.900;8.208;2023-07-13T03:23:40;4.33;;;2.40;;
18455;SDS011;9357;49.900;8.208;2023-07-13T03:25:13;2.50;;;2.20;;
18455;SDS011;9357;49.900;8.208;2023-07-13T03:26:45;4.30;;;2.53;;
18455;SDS011;9357;49.900;8.208;2023-07-13T03:28:17;2.50;;;2.10;;
18455;SDS011;9357;49.900;8.208;2023-07-13T03:29:50;5.10;;;2.23;;
18455;SDS011;9357;49.900;8.208;2023-07-13T03:31:24;3.50;;;2.30;;
18455;SDS011;9357;49.900;8.208;2023-07-13T03:32:57;4.83;;;2.33;;
18455;SDS011;9357;49.900;8.208;2023-07-13T03:34:30;2.60;;;2.40;;
18455;SDS011;9357;49.900;8.208;2023-07-13T03:36:02;3.90;;;2.43;;
18455;SDS011;9357;49.900;8.208;2023-07-13T03:37:35;3.63;;;2.80;;
18455;SDS011;9357;49.900;8.208;2023-07-13T03:39:13;2.50;;;2.30;;
18455;SDS011;9357;49.900;8.208;2023-07-13T03:40:47;3.67;;;2.27;;
18455;SDS011;9357;49.900;8.208;2023-07-13T03:42:19;2.93;;;2.53;;
18455;SDS011;9357;49.900;8.208;2023-07-13T03:43:52;2.47;;;2.27;;
18455;SDS011;9357;49.900;8.208;2023-07-13T03:45:23;3.23;;;2.40;;
18455;SDS011;9357;49.900;8.208;2023-07-13T03:46:56;3.43;;;2.40;;
18455;SDS011;9357;49.900;8.208;2023-07-13T03:48:29;4.40;;;2.30;;
18455;SDS011;9357;49.900;8.208;2023-07-13T03:50:01;2.20;;;2.00;;
18455;SDS011;9357;49.900;8.208;2023-07-13T03:51:34;2.57;;;2.37;;
18455;SDS011;9357;49.900;8.208;2023-07-13T03:53:07;2.40;;;2.00;;
18455;SDS011;9357;49.900;8.208;2023-07-13T03:54:39;3.37;;;2.47;;
18455;SDS011;9357;49.900;8.208;2023-07-13T03:56:13;2.87;;;2.33;;
18455;SDS011;9357;49.900;8.208;2023-07-13T03:57:46;2.60;;;2.40;;
18455;SDS011;9357;49.900;8.208;2023-07-13T03:59:19;3.07;;;2.43;;
18455;SDS011;9357;49.900;8.208;2023-07-13T04:00:52;3.33;;;2.43;;
18455;SDS011;9357;49.900;8.208;2023-07-13T04:02:24;3.77;;;2.40;;
18455;SDS011;9357;49.900;8.208;2023-07-13T04:03:57;4.40;;;2.50;;
18455;SDS011;9357;49.900;8.208;2023-07-13T04:05:33;4.53;;;2.40;;
18455;SDS011;9357;49.900;8.208;2023-07-13T04:07:05;3.03;;;2.43;;
18455;SDS011;9357;49.900;8.208;2023-07-13T04:08:39;2.80;;;2.23;;
18455;SDS011;9357;49.900;8.208;2023-07-13T04:10:11;3.47;;;2.53;;
18455;SDS011;9357;49.900;8.208;2023-07-13T04:11:45;3.13;;;2.23;;
18455;SDS011;9357;49.900;8.208;2023-07-13T04:13:17;2.80;;;2.43;;
18455;SDS011;9357;49.900;8.208;2023-07-13T04:14:49;3.40;;;2.57;;
18455;SDS011;9357;49.900;8.208;2023-07-13T04:16:22;2.23;;;2.10;;
18455;SDS011;9357;49.900;8.208;2023-07-13T04:17:54;5.37;;;2.60;;
18455;SDS011;9357;49.900;8.208;2023-07-13T04:19:27;3.90;;;2.73;;
18455;SDS011;9357;49.900;8.208;2023-07-13T04:20:59;4.90;;;2.70;;
18455;SDS011;9357;49.900;8.208;2023-07-13T04:22:32;3.53;;;2.40;;
18455;SDS011;9357;49.900;8.208;2023-07-13T04:24:04;2.57;;;2.37;;
18455;SDS011;9357;49.900;8.208;2023-07-13T04:25:37;2.90;;;2.50;;
18455;SDS011;9357;49.900;8.208;2023-07-13T04:27:10;4.87;;;2.53;;
18455;SDS011;9357;49.900;8.208;2023-07-13T04:28:43;4.17;;;2.53;;
18455;SDS011;9357;49.900;8.208;2023-07-13T04:30:14;4.63;;;2.43;;
18455;SDS011;9357;49.900;8.208;2023-07-13T04:31:47;2.40;;;2.20;;
18455;SDS011;9357;49.900;8.208;2023-07-13T04:33:20;4.00;;;2.43;;
18455;SDS011;9357;49.900;8.208;2023-07-13T04:34:53;2.97;;;2.40;;
18455;SDS011;9357;49.900;8.208;2023-07-13T04:36:26;3.40;;;2.60;;
18455;SDS011;9357;49.900;8.208;2023-07-13T04:37:58;5.27;;;2.73;;
18455;SDS011;9357;49.900;8.208;2023-07-13T04:39:31;5.33;;;2.50;;
18455;SDS011;9357;49.900;8.208;2023-07-13T04:41:07;4.10;;;2.30;;
18455;SDS011;9357;49.900;8.208;2023-07-13T04:42:41;3.13;;;2.50;;
18455;SDS011;9357;49.900;8.208;2023-07-13T04:44:14;3.67;;;2.43;;
18455;SDS011;9357;49.900;8.208;2023-07-13T04:45:47;2.80;;;2.50;;
18455;SDS011;9357;49.900;8.208;2023-07-13T04:47:18;3.57;;;2.50;;
18455;SDS011;9357;49.900;8.208;2023-07-13T04:48:51;3.07;;;2.70;;
18455;SDS011;9357;49.900;8.208;2023-07-13T04:50:25;3.77;;;2.60;;
18455;SDS011;9357;49.900;8.208;2023-07-13T04:51:57;5.43;;;2.60;;
18455;SDS011;9357;49.900;8.208;2023-07-13T04:53:29;2.97;;;2.50;;
18455;SDS011;9357;49.900;8.208;2023-07-13T04:55:03;3.47;;;2.40;;
18455;SDS011;9357;49.900;8.208;2023-07-13T04:56:36;3.90;;;2.30;;
18455;SDS011;9357;49.900;8.208;2023-07-13T04:58:10;3.07;;;2.47;;
18455;SDS011;9357;49.900;8.208;2023-07-13T04:59:42;3.10;;;2.30;;
18455;SDS011;9357;49.900;8.208;2023-07-13T05:01:14;4.57;;;2.63;;
18455;SDS011;9357;49.900;8.208;2023-07-13T05:02:46;4.73;;;2.80;;
18455;SDS011;9357;49.900;8.208;2023-07-13T05:04:19;3.80;;;2.70;;
18455;SDS011;9357;49.900;8.208;2023-07-13T05:05:54;6.13;;;2.60;;
18455;SDS011;9357;49.900;8.208;2023-07-13T05:07:28;3.23;;;2.40;;
18455;SDS011;9357;49.900;8.208;2023-07-13T05:09:00;3.80;;;2.10;;
18455;SDS011;9357;49.900;8.208;2023-07-13T05:10:32;2.83;;;2.23;;
18455;SDS011;9357;49.900;8.208;2023-07-13T05:12:05;6.00;;;2.30;;
18455;SDS011;9357;49.900;8.208;2023-07-13T05:13:40;3.33;;;2.60;;
18455;SDS011;9357;49.900;8.208;2023-07-13T05:15:12;4.13;;;2.00;;
18455;SDS011;9357;49.900;8.208;2023-07-13T05:16:44;4.10;;;2.23;;
18455;SDS011;9357;49.900;8.208;2023-07-13T05:18:17;4.20;;;2.00;;
18455;SDS011;9357;49.900;8.208;2023-07-13T05:19:49;3.07;;;2.13;;
18455;SDS011;9357;49.900;8.208;2023-07-13T05:21:22;2.67;;;2.20;;
18455;SDS011;9357;49.900;8.208;2023-07-13T05:22:53;2.20;;;2.00;;
18455;SDS011;9357;49.900;8.208;2023-07-13T05:24:26;4.03;;;2.17;;
18455;SDS011;9357;49.900;8.208;2023-07-13T05:25:58;5.33;;;2.30;;
18455;SDS011;9357;49.900;8.208;2023-07-13T05:27:31;2.93;;;2.10;;
18455;SDS011;9357;49.900;8.208;2023-07-13T05:29:04;3.83;;;2.30;;
18455;SDS011;9357;49.900;8.208;2023-07-13T05:30:37;2.43;;;2.10;;
18455;SDS011;9357;49.900;8.208;2023-07-13T05:32:09;3.67;;;2.30;;
18455;SDS011;9357;49.900;8.208;2023-07-13T05:33:42;2.00;;;1.90;;
18455;SDS011;9357;49.900;8.208;2023-07-13T05:35:14;3.73;;;2.40;;
18455;SDS011;9357;49.900;8.208;2023-07-13T05:36:47;4.37;;;2.30;;
18455;SDS011;9357;49.900;8.208;2023-07-13T05:38:19;3.30;;;2.07;;
18455;SDS011;9357;49.900;8.208;2023-07-13T05:39:52;3.27;;;2.30;;
18455;SDS011;9357;49.900;8.208;2023-07-13T05:41:24;4.90;;;2.50;;
18455;SDS011;9357;49.900;8.208;2023-07-13T05:42:56;2.90;;;2.27;;
18455;SDS011;9357;49.900;8.208;2023-07-13T05:44:30;2.73;;;2.27;;
18455;SDS011;9357;49.900;8.208;2023-07-13T05:46:02;3.03;;;1.90;;
18455;SDS011;9357;49.900;8.208;2023-07-13T05:47:34;3.77;;;2.10;;
18455;SDS011;9357;49.900;8.208;2023-07-13T05:49:07;3.77;;;2.10;;
18455;SDS011;9357;49.900;8.208;2023-07-13T05:50:39;2.93;;;1.97;;
18455;SDS011;9357;49.900;8.208;2023-07-13T05:52:12;4.57;;;2.00;;
18455;SDS011;9357;49.900;8.208;2023-07-13T05:53:44;3.53;;;2.00;;
18455;SDS011;9357;49.900;8.208;2023-07-13T05:55:16;2.97;;;2.23;;
18455;SDS011;9357;49.900;8.208;2023-07-13T05:56:49;3.43;;;2.00;;
18455;SDS011;9357;49.900;8.208;2023-07-13T05:58:22;4.63;;;1.97;;
18455;SDS011;9357;49.900;8.208;2023-07-13T05:59:55;2.67;;;1.70;;
18455;SDS011;9357;49.900;8.208;2023-07-13T06:01:29;3.23;;;1.97;;
18455;SDS011;9357;49.900;8.208;2023-07-13T06:03:02;2.73;;;1.80;;
18455;SDS011;9357;49.900;8.208;2023-07-13T06:04:35;6.53;;;2.20;;
18455;SDS011;9357;49.900;8.208;2023-07-13T06:06:07;3.87;;;2.07;;
18455;SDS011;9357;49.900;8.208;2023-07-13T06:07:41;3.67;;;2.10;;
18455;SDS011;9357;49.900;8.208;2023-07-13T06:09:14;2.73;;;1.90;;
18455;SDS011;9357;49.900;8.208;2023-07-13T06:10:46;3.67;;;2.00;;
18455;SDS011;9357;49.900;8.208;2023-07-13T06:12:19;3.10;;;1.67;;
18455;SDS011;9357;49.900;8.208;2023-07-13T06:13:50;2.60;;;1.93;;
18455;SDS011;9357;49.900;8.208;2023-07-13T06:15:25;3.57;;;1.93;;
18455;SDS011;9357;49.900;8.208;2023-07-13T06:16:57;2.03;;;1.83;;
18455;SDS011;9357;49.900;8.208;2023-07-13T06:18:29;2.20;;;1.53;;
18455;SDS011;9357;49.900;8.208;2023-07-13T06:20:02;2.43;;;1.87;;
18455;SDS011;9357;49.900;8.208;2023-07-13T06:21:35;3.00;;;1.63;;
18455;SDS011;9357;49.900;8.208;2023-07-13T06:23:06;3.10;;;1.80;;
18455;SDS011;9357;49.900;8.208;2023-07-13T06:24:39;3.63;;;1.53;;
18455;SDS011;9357;49.900;8.208;2023-07-13T06:26:11;4.13;;;1.77;;
18455;SDS011;9357;49.900;8.208;2023-07-13T06:27:44;2.00;;;1.80;;
18455;SDS011;9357;49.900;8.208;2023-07-13T06:29:16;4.43;;;1.70;;
18455;SDS011;9357;49.900;8.208;2023-07-13T06:30:50;2.33;;;1.70;;
18455;SDS011;9357;49.900;8.208;2023-07-13T06:32:22;3.00;;;1.67;;
18455;SDS011;9357;49.900;8.208;2023-07-13T06:33:54;2.27;;;1.67;;
18455;SDS011;9357;49.900;8.208;2023-07-13T06:35:27;1.87;;;1.50;;
18455;SDS011;9357;49.900;8.208;2023-07-13T06:36:59;3.50;;;1.80;;
18455;SDS011;9357;49.900;8.208;2023-07-13T06:38:32;2.43;;;1.63;;
18455;SDS011;9357;49.900;8.208;2023-07-13T06:40:04;2.90;;;1.70;;
18455;SDS011;9357;49.900;8.208;2023-07-13T06:41:37;1.40;;;1.30;;
18455;SDS011;9357;49.900;8.208;2023-07-13T06:43:09;1.97;;;1.30;;
18455;SDS011;9357;49.900;8.208;2023-07-13T06:44:42;1.83;;;1.50;;
18455;SDS011;9357;49.900;8.208;2023-07-13T06:46:16;1.90;;;1.50;;
18455;SDS011;9357;49.900;8.208;2023-07-13T06:47:48;3.37;;;1.40;;
18455;SDS011;9357;49.900;8.208;2023-07-13T06:49:20;1.80;;;1.30;;
18455;SDS011;9357;49.900;8.208;2023-07-13T06:50:53;4.10;;;1.37;;
18455;SDS011;9357;49.900;8.208;2023-07-13T06:52:25;3.07;;;1.57;;
18455;SDS011;9357;49.900;8.208;2023-07-13T06:53:58;1.40;;;1.30;;
18455;SDS011;9357;49.900;8.208;2023-07-13T06:55:29;1.83;;;1.17;;
18455;SDS011;9357;49.900;8.208;2023-07-13T06:57:02;2.87;;;1.40;;
18455;SDS011;9357;49.900;8.208;2023-07-13T06:58:34;2.03;;;1.50;;
18455;SDS011;9357;49.900;8.208;2023-07-13T07:00:08;2.20;;;1.23;;
18455;SDS011;9357;49.900;8.208;2023-07-13T07:01:42;2.50;;;1.40;;
18455;SDS011;9357;49.900;8.208;2023-07-13T07:03:15;2.53;;;1.60;;
18455;SDS011;9357;49.900;8.208;2023-07-13T07:04:47;1.90;;;1.40;;
18455;SDS011;9357;49.900;8.208;2023-07-13T07:06:21;4.00;;;1.40;;
18455;SDS011;9357;49.900;8.208;2023-07-13T07:07:55;3.57;;;1.20;;
18455;SDS011;9357;49.900;8.208;2023-07-13T07:09:27;2.47;;;1.23;;
18455;SDS011;9357;49.900;8.208;2023-07-13T07:11:01;3.27;;;1.30;;
18455;SDS011;9357;49.900;8.208;2023-07-13T07:12:33;2.37;;;1.20;;
18455;SDS011;9357;49.900;8.208;2023-07-13T07:14:05;3.40;;;1.23;;
18455;SDS011;9357;49.900;8.208;2023-07-13T07:15:39;1.70;;;1.30;;
18455;SDS011;9357;49.900;8.208;2023-07-13T07:17:12;1.97;;;1.20;;
18455;SDS011;9357;49.900;8.208;2023-07-13T07:18:45;2.30;;;1.20;;
18455;SDS011;9357;49.900;8.208;2023-07-13T07:20:18;2.63;;;1.17;;
18455;SDS011;9357;49.900;8.208;2023-07-13T07:21:51;2.50;;;1.20;;
18455;SDS011;9357;49.900;8.208;2023-07-13T07:23:24;1.83;;;1.20;;
18455;SDS011;9357;49.900;8.208;2023-07-13T07:24:56;3.63;;;1.37;;
18455;SDS011;9357;49.900;8.208;2023-07-13T07:26:29;1.63;;;1.20;;
18455;SDS011;9357;49.900;8.208;2023-07-13T07:28:21;3.03;;;1.17;;
18455;SDS011;9357;49.900;8.208;2023-07-13T07:29:56;2.40;;;1.20;;
18455;SDS011;9357;49.900;8.208;2023-07-13T07:31:31;2.03;;;1.30;;
18455;SDS011;9357;49.900;8.208;2023-07-13T07:33:08;3.07;;;1.10;;
18455;SDS011;9357;49.900;8.208;2023-07-13T07:34:40;2.87;;;1.30;;
18455;SDS011;9357;49.900;8.208;2023-07-13T07:36:13;3.13;;;1.10;;
18455;SDS011;9357;49.900;8.208;2023-07-13T07:37:49;1.90;;;1.30;;
18455;SDS011;9357;49.900;8.208;2023-07-13T07:39:21;1.87;;;1.10;;
18455;SDS011;9357;49.900;8.208;2023-07-13T07:40:54;2.23;;;1.10;;
18455;SDS011;9357;49.900;8.208;2023-07-13T07:42:29;2.40;;;1.23;;
18455;SDS011;9357;49.900;8.208;2023-07-13T07:44:02;1.47;;;1.30;;
18455;SDS011;9357;49.900;8.208;2023-07-13T07:45:34;1.80;;;1.10;;
18455;SDS011;9357;49.900;8.208;2023-07-13T07:47:08;2.00;;;1.27;;
18455;SDS011;9357;49.900;8.208;2023-07-13T07:48:41;1.63;;;1.27;;
18455;SDS011;9357;49.900;8.208;2023-07-13T07:50:14;2.40;;;1.20;;
18455;SDS011;9357;49.900;8.208;2023-07-13T07:51:47;1.57;;;1.23;;
18455;SDS011;9357;49.900;8.208;2023-07-13T07:53:19;3.43;;;1.40;;
18455;SDS011;9357;49.900;8.208;2023-07-13T07:54:52;2.90;;;1.17;;
18455;SDS011;9357;49.900;8.208;2023-07-13T07:56:27;2.37;;;1.20;;
18455;SDS011;9357;49.900;8.208;2023-07-13T07:58:02;2.93;;;1.27;;
18455;SDS011;9357;49.900;8.208;2023-07-13T07:59:54;2.67;;;1.17;;
18455;SDS011;9357;49.900;8.208;2023-07-13T08:01:30;2.27;;;1.30;;
18455;SDS011;9357;49.900;8.208;2023-07-13T08:03:05;3.50;;;1.30;;
18455;SDS011;9357;49.900;8.208;2023-07-13T08:04:42;2.07;;;1.37;;
18455;SDS011;9357;49.900;8.208;2023-07-13T08:06:34;6.03;;;1.80;;
18455;SDS011;9357;49.900;8.208;2023-07-13T08:08:10;3.47;;;1.20;;
18455;SDS011;9357;49.900;8.208;2023-07-13T08:09:42;3.37;;;1.40;;
18455;SDS011;9357;49.900;8.208;2023-07-13T08:11:15;2.63;;;1.30;;
18455;SDS011;9357;49.900;8.208;2023-07-13T08:12:50;5.00;;;2.10;;
18455;SDS011;9357;49.900;8.208;2023-07-13T08:14:26;4.20;;;1.50;;
18455;SDS011;9357;49.900;8.208;2023-07-13T08:16:18;2.73;;;1.30;;
18455;SDS011;9357;49.900;8.208;2023-07-13T08:17:51;3.20;;;1.40;;
18455;SDS011;9357;49.900;8.208;2023-07-13T08:19:23;5.80;;;1.87;;
18455;SDS011;9357;49.900;8.208;2023-07-13T08:20:57;4.00;;;1.70;;
18455;SDS011;9357;49.900;8.208;2023-07-13T08:22:29;4.77;;;1.50;;
18455;SDS011;9357;49.900;8.208;2023-07-13T08:24:02;4.30;;;1.80;;
18455;SDS011;9357;49.900;8.208;2023-07-13T08:25:35;2.83;;;1.43;;
18455;SDS011;9357;49.900;8.208;2023-07-13T08:27:07;3.63;;;1.30;;
18455;SDS011;9357;49.900;8.208;2023-07-13T08:28:40;1.60;;;1.27;;
18455;SDS011;9357;49.900;8.208;2023-07-13T08:30:12;2.40;;;1.30;;
18455;SDS011;9357;49.900;8.208;2023-07-13T08:31:45;1.50;;;1.30;;
18455;SDS011;9357;49.900;8.208;2023-07-13T08:33:17;2.07;;;1.10;;
18455;SDS011;9357;49.900;8.208;2023-07-13T08:34:51;2.10;;;1.37;;
18455;SDS011;9357;49.900;8.208;2023-07-13T08:36:26;1.67;;;1.23;;
18455;SDS011;9357;49.900;8.208;2023-07-13T08:37:58;2.13;;;1.30;;
18455;SDS011;9357;49.900;8.208;2023-07-13T08:39:31;1.97;;;1.13;;
18455;SDS011;9357;49.900;8.208;2023-07-13T08:41:10;3.73;;;1.30;;
18455;SDS011;9357;49.900;8.208;2023-07-13T08:42:45;2.67;;;1.40;;
18455;SDS011;9357;49.900;8.208;2023-07-13T08:44:23;3.33;;;1.90;;
18455;SDS011;9357;49.900;8.208;2023-07-13T08:46:08;1.23;;;1.10;;
18455;SDS011;9357;49.900;8.208;2023-07-13T08:47:46;1.87;;;1.17;;
18455;SDS011;9357;49.900;8.208;2023-07-13T08:49:24;3.07;;;1.20;;
18455;SDS011;9357;49.900;8.208;2023-07-13T08:50:59;2.07;;;1.30;;
18455;SDS011;9357;49.900;8.208;2023-07-13T08:52:38;2.30;;;1.30;;
18455;SDS011;9357;49.900;8.208;2023-07-13T08:54:17;2.90;;;1.30;;
18455;SDS011;9357;49.900;8.208;2023-07-13T08:55:55;3.10;;;1.37;;
18455;SDS011;9357;49.900;8.208;2023-07-13T08:57:31;1.53;;;1.30;;
18455;SDS011;9357;49.900;8.208;2023-07-13T08:59:09;2.73;;;1.30;;
18455;SDS011;9357;49.900;8.208;2023-07-13T09:00:47;2.57;;;1.20;;
18455;SDS011;9357;49.900;8.208;2023-07-13T09:02:26;2.57;;;0.93;;
18455;SDS011;9357;49.900;8.208;2023-07-13T09:04:06;3.43;;;1.17;;
18455;SDS011;9357;49.900;8.208;2023-07-13T09:05:44;1.30;;;1.20;;
18455;SDS011;9357;49.900;8.208;2023-07-13T09:07:26;1.23;;;1.00;;
18455;SDS011;9357;49.900;8.208;2023-07-13T09:09:08;2.93;;;1.13;;
18455;SDS011;9357;49.900;8.208;2023-07-13T09:10:52;1.43;;;1.03;;
18455;SDS011;9357;49.900;8.208;2023-07-13T09:12:31;2.67;;;1.10;;
18455;SDS011;9357;49.900;8.208;2023-07-13T09:14:26;1.23;;;0.90;;
18455;SDS011;9357;49.900;8.208;2023-07-13T09:16:06;1.80;;;1.10;;
18455;SDS011;9357;49.900;8.208;2023-07-13T09:17:41;1.60;;;1.00;;
18455;SDS011;9357;49.900;8.208;2023-07-13T09:19:21;2.20;;;1.10;;
18455;SDS011;9357;49.900;8.208;2023-07-13T09:20:58;3.50;;;1.17;;
18455;SDS011;9357;49.900;8.208;2023-07-13T09:22:36;3.33;;;1.30;;
18455;SDS011;9357;49.900;8.208;2023-07-13T09:24:22;4.97;;;1.20;;
18455;SDS011;9357;49.900;8.208;2023-07-13T09:26:02;4.80;;;1.30;;
18455;SDS011;9357;49.900;8.208;2023-07-13T09:27:39;1.90;;;1.20;;
18455;SDS011;9357;49.900;8.208;2023-07-13T09:29:26;3.57;;;1.10;;
18455;SDS011;9357;49.900;8.208;2023-07-13T09:31:04;1.47;;;1.00;;
18455;SDS011;9357;49.900;8.208;2023-07-13T09:32:40;1.60;;;1.03;;
18455;SDS011;9357;49.900;8.208;2023-07-13T09:34:15;2.63;;;1.00;;